Time;durP1;ratioP1;P1;durP2;ratioP2;P2;SDS_P1;SDS_P2;PMS_P1;PMS_P2;Temp;Humidity;BMP_temperature;BMP_pressure;BME280_temperature;BME280_humidity;BME280_pressure;Samples;Min_cycle;Max_cycle;Signal;HPM_P1;HPM_P2
2022/10/15 00:01:17;;;;;;;0.40;0.30;;;13.40;99.90;;;;;;5012657;28;20515;-78
2022/10/15 00:03:45;;;;;;;0.30;0.30;;;13.40;99.90;;;;;;5012737;28;20455;-77
2022/10/15 00:06:15;;;;;;;0.30;0.20;;;13.40;99.90;;;;;;5012738;28;20448;-78
2022/10/15 00:08:43;;;;;;;0.30;0.30;;;13.50;99.90;;;;;;5012751;28;20436;-79
2022/10/15 00:11:12;;;;;;;0.30;0.30;;;13.40;99.90;;;;;;5012998;28;20479;-79
2022/10/15 00:13:39;;;;;;;0.30;0.30;;;13.40;99.90;;;;;;5015815;28;20506;-79
2022/10/15 00:16:08;;;;;;;0.30;0.30;;;13.40;99.90;;;;;;5015922;28;20961;-79
2022/10/15 00:18:35;;;;;;;1.60;0.37;;;13.50;99.90;;;;;;5016058;28;20491;-79
2022/10/15 00:21:02;;;;;;;0.40;0.30;;;13.40;99.90;;;;;;5015968;28;20476;-79
2022/10/15 00:23:31;;;;;;;0.30;0.30;;;13.50;99.90;;;;;;5016256;28;20440;-79
2022/10/15 00:26:05;;;;;;;0.30;0.30;;;13.50;99.90;;;;;;5015971;28;20452;-80
2022/10/15 00:28:32;;;;;;;0.40;0.30;;;13.50;99.90;;;;;;5016017;28;20408;-79
2022/10/15 00:31:04;;;;;;;0.40;0.30;;;13.50;99.90;;;;;;5015833;28;20479;-79
2022/10/15 00:33:31;;;;;;;0.30;0.30;;;13.50;99.90;;;;;;5015559;28;20552;-79
2022/10/15 00:35:59;;;;;;;0.40;0.30;;;13.50;99.90;;;;;;5015816;28;20456;-79
2022/10/15 00:38:26;;;;;;;0.40;0.30;;;13.50;99.90;;;;;;5015794;28;20448;-79
2022/10/15 00:40:54;;;;;;;0.30;0.30;;;13.50;99.90;;;;;;5015378;28;20986;-79
2022/10/15 00:43:36;;;;;;;0.30;0.30;;;13.50;99.90;;;;;;5015719;28;20448;-78
2022/10/15 00:46:04;;;;;;;0.30;0.30;;;13.60;99.90;;;;;;5015714;28;20432;-79
2022/10/15 00:48:32;;;;;;;0.30;0.30;;;13.60;99.90;;;;;;5015598;28;20463;-79
2022/10/15 00:51:03;;;;;;;0.30;0.30;;;13.60;99.90;;;;;;5015258;28;20479;-79
2022/10/15 00:53:30;;;;;;;0.30;0.20;;;13.60;99.90;;;;;;5015167;28;20472;-78
2022/10/15 00:56:00;;;;;;;0.40;0.30;;;13.60;99.90;;;;;;5015518;28;20455;-79
2022/10/15 00:58:31;;;;;;;0.30;0.30;;;13.70;99.90;;;;;;5015459;28;20456;-78
2022/10/15 01:00:58;;;;;;;0.30;0.27;;;13.60;99.90;;;;;;4998485;28;263637;-83
2022/10/15 01:03:26;;;;;;;0.30;0.30;;;13.60;99.90;;;;;;5007209;28;20943;-82
2022/10/15 01:05:53;;;;;;;0.33;0.30;;;13.60;99.90;;;;;;5016560;28;20444;-82
2022/10/15 01:08:20;;;;;;;0.50;0.30;;;13.60;99.90;;;;;;5016509;28;20823;-82
2022/10/15 01:10:54;;;;;;;0.30;0.30;;;13.70;99.90;;;;;;5016354;28;20468;-83
2022/10/15 01:13:29;;;;;;;0.30;0.20;;;13.70;99.90;;;;;;5016392;28;20468;-83
2022/10/15 01:16:04;;;;;;;0.40;0.40;;;13.60;99.90;;;;;;5016212;28;20768;-82
2022/10/15 01:18:39;;;;;;;0.30;0.23;;;13.60;99.90;;;;;;5016388;28;20508;-82
2022/10/15 01:21:16;;;;;;;0.30;0.30;;;13.70;99.90;;;;;;5016409;28;20480;-84
2022/10/15 01:24:22;;;;;;;0.30;0.20;;;13.70;99.90;;;;;;5015918;28;20431;-83
2022/10/15 01:27:09;;;;;;;0.40;0.40;;;13.70;99.90;;;;;;5015963;28;20417;-82
2022/10/15 01:30:07;;;;;;;0.30;0.20;;;13.70;99.90;;;;;;5016090;28;20476;-83
2022/10/15 01:32:38;;;;;;;0.30;0.30;;;13.70;99.90;;;;;;5016071;28;20428;-82
2022/10/15 01:35:11;;;;;;;0.30;0.27;;;13.70;99.90;;;;;;5015774;28;20452;-82
2022/10/15 01:37:44;;;;;;;0.30;0.30;;;13.80;99.90;;;;;;5015993;28;20443;-82
2022/10/15 01:40:15;;;;;;;0.30;0.20;;;13.80;99.90;;;;;;5015943;28;20476;-83
2022/10/15 01:42:48;;;;;;;0.30;0.27;;;13.70;99.90;;;;;;5015600;28;20811;-83
2022/10/15 01:45:19;;;;;;;0.30;0.30;;;13.70;99.90;;;;;;5015853;28;20429;-83
2022/10/15 01:47:51;;;;;;;0.30;0.30;;;13.70;99.90;;;;;;5015815;28;20531;-81
2022/10/15 01:50:21;;;;;;;0.30;0.30;;;13.80;99.90;;;;;;5015384;28;21021;-81
2022/10/15 01:52:50;;;;;;;0.97;0.43;;;13.80;99.90;;;;;;5015592;28;20459;-83
2022/10/15 01:55:20;;;;;;;0.30;0.20;;;13.80;99.90;;;;;;5015309;28;20947;-84
2022/10/15 01:57:48;;;;;;;0.30;0.20;;;13.80;99.90;;;;;;5015408;28;20942;-83
2022/10/15 02:00:16;;;;;;;0.30;0.30;;;13.80;99.90;;;;;;5015193;28;20460;-83
2022/10/15 02:02:43;;;;;;;0.30;0.30;;;13.80;99.90;;;;;;5015390;28;20918;-83
2022/10/15 02:05:16;;;;;;;0.30;0.20;;;13.80;99.90;;;;;;5015445;28;20448;-83
2022/10/15 02:07:49;;;;;;;0.40;0.30;;;13.80;99.90;;;;;;5015478;28;20440;-83
2022/10/15 02:10:23;;;;;;;0.30;0.20;;;13.80;99.90;;;;;;5015020;28;20987;-83
2022/10/15 02:13:02;;;;;;;0.30;0.30;;;13.90;99.90;;;;;;5015250;28;20431;-83
2022/10/15 02:15:36;;;;;;;0.30;0.20;;;13.90;99.90;;;;;;5015311;28;20437;-82
2022/10/15 02:18:09;;;;;;;0.40;0.30;;;13.80;99.90;;;;;;5016063;28;20436;-82
2022/10/15 02:20:44;;;;;;;0.30;0.30;;;13.90;99.90;;;;;;5015188;28;20837;-82
2022/10/15 02:23:17;;;;;;;0.30;0.30;;;13.90;99.90;;;;;;5015241;28;20428;-83
2022/10/15 02:25:45;;;;;;;0.30;0.30;;;13.90;99.90;;;;;;5015288;28;20441;-83
2022/10/15 02:28:15;;;;;;;0.30;0.20;;;13.90;99.90;;;;;;5014788;28;20943;-83
2022/10/15 02:30:43;;;;;;;0.30;0.30;;;13.90;99.90;;;;;;5014989;28;20982;-83
2022/10/15 02:33:11;;;;;;;0.30;0.20;;;13.90;99.90;;;;;;5015031;28;20440;-83
2022/10/15 02:35:40;;;;;;;0.30;0.30;;;13.90;99.90;;;;;;5014320;28;20463;-83
2022/10/15 02:38:10;;;;;;;0.30;0.20;;;13.90;99.90;;;;;;5014995;28;20452;-83
2022/10/15 02:40:38;;;;;;;0.30;0.30;;;13.90;99.90;;;;;;5014832;28;20475;-83
2022/10/15 02:43:08;;;;;;;0.33;0.27;;;13.90;99.90;;;;;;5014795;28;20452;-84
2022/10/15 02:45:36;;;;;;;0.30;0.20;;;14.00;99.90;;;;;;5014786;28;20441;-83
2022/10/15 02:48:03;;;;;;;0.40;0.30;;;14.00;99.90;;;;;;5014420;28;20447;-83
2022/10/15 02:50:29;;;;;;;0.33;0.30;;;14.00;99.90;;;;;;5014311;28;20479;-83
2022/10/15 02:52:57;;;;;;;0.30;0.20;;;14.00;99.90;;;;;;5014325;28;20836;-83
2022/10/15 02:55:24;;;;;;;0.30;0.30;;;14.10;99.90;;;;;;5014144;28;21003;-83
2022/10/15 02:57:51;;;;;;;0.30;0.20;;;14.10;99.90;;;;;;5014189;28;20955;-83
2022/10/15 03:00:18;;;;;;;0.30;0.30;;;14.10;99.90;;;;;;5014160;28;20483;-83
2022/10/15 03:02:45;;;;;;;0.30;0.20;;;14.10;99.90;;;;;;5014195;28;20440;-83
2022/10/15 03:05:12;;;;;;;0.30;0.20;;;14.10;99.90;;;;;;5014402;28;20456;-83
2022/10/15 03:07:39;;;;;;;0.60;0.60;;;14.20;99.90;;;;;;5014032;28;20826;-83
2022/10/15 03:10:07;;;;;;;0.30;0.27;;;14.20;99.90;;;;;;5014001;28;20483;-84
2022/10/15 03:12:35;;;;;;;0.30;0.20;;;14.20;99.90;;;;;;5014338;28;20452;-83
2022/10/15 03:15:01;;;;;;;0.80;0.30;;;14.20;99.90;;;;;;5014084;28;20862;-82
2022/10/15 03:17:28;;;;;;;0.30;0.30;;;14.20;99.90;;;;;;5013861;28;20448;-83
2022/10/15 03:19:55;;;;;;;0.60;0.30;;;14.20;99.90;;;;;;5014092;28;20479;-84
2022/10/15 03:22:22;;;;;;;0.30;0.30;;;14.30;99.90;;;;;;5014067;28;20452;-84
2022/10/15 03:24:48;;;;;;;0.40;0.30;;;14.30;99.90;;;;;;5013825;28;20923;-84
2022/10/15 03:27:16;;;;;;;0.30;0.23;;;14.30;99.90;;;;;;5014052;28;20449;-84
2022/10/15 03:29:43;;;;;;;0.30;0.20;;;14.30;99.90;;;;;;5013931;28;20472;-84
2022/10/15 03:32:10;;;;;;;0.30;0.20;;;14.30;99.90;;;;;;5013923;28;20456;-84
2022/10/15 03:34:37;;;;;;;0.30;0.20;;;14.30;99.90;;;;;;5013924;28;20479;-84
2022/10/15 03:37:03;;;;;;;0.30;0.20;;;14.30;99.90;;;;;;5013895;28;20452;-85
2022/10/15 03:39:30;;;;;;;0.30;0.20;;;14.30;99.90;;;;;;5013533;28;20987;-84
2022/10/15 03:41:57;;;;;;;0.30;0.27;;;14.40;99.90;;;;;;5013782;28;20456;-85
2022/10/15 03:44:25;;;;;;;0.30;0.30;;;14.40;99.90;;;;;;5013860;28;20770;-85
2022/10/15 03:46:51;;;;;;;0.30;0.20;;;14.40;99.90;;;;;;5013324;28;20951;-82
2022/10/15 03:49:18;;;;;;;0.30;0.20;;;14.40;99.90;;;;;;5013622;28;20444;-83
2022/10/15 03:51:45;;;;;;;0.40;0.20;;;14.40;99.90;;;;;;5013744;28;20456;-83
2022/10/15 03:54:12;;;;;;;0.30;0.20;;;14.40;99.90;;;;;;5013376;28;20476;-84
2022/10/15 03:56:38;;;;;;;0.30;0.30;;;14.40;99.90;;;;;;5013658;28;20447;-84
2022/10/15 03:59:05;;;;;;;0.40;0.30;;;14.40;99.90;;;;;;5013341;28;20909;-84
2022/10/15 04:01:33;;;;;;;0.30;0.20;;;14.40;99.90;;;;;;5013347;28;20487;-85
2022/10/15 04:04:00;;;;;;;0.30;0.20;;;14.40;99.90;;;;;;5013631;28;20448;-84
2022/10/15 04:06:26;;;;;;;0.30;0.20;;;14.40;99.90;;;;;;5013559;28;20460;-83
2022/10/15 04:08:53;;;;;;;0.30;0.30;;;14.40;99.90;;;;;;5013267;28;20436;-83
2022/10/15 04:11:20;;;;;;;0.83;0.30;;;14.40;99.90;;;;;;5013507;28;20483;-84
2022/10/15 04:13:49;;;;;;;0.30;0.30;;;14.40;99.90;;;;;;5013630;28;20490;-86
2022/10/15 04:16:16;;;;;;;0.30;0.20;;;14.40;99.90;;;;;;5013625;28;20449;-84
2022/10/15 04:18:44;;;;;;;0.30;0.20;;;14.40;99.90;;;;;;5013653;28;20444;-84
2022/10/15 04:21:11;;;;;;;0.30;0.20;;;14.30;99.90;;;;;;5013094;28;20475;-84
2022/10/15 04:23:38;;;;;;;0.30;0.20;;;14.40;99.90;;;;;;5013597;28;20455;-84
2022/10/15 04:26:05;;;;;;;0.30;0.30;;;14.30;99.90;;;;;;5013416;28;20542;-85
2022/10/15 04:28:32;;;;;;;0.30;0.20;;;14.30;99.90;;;;;;5013420;28;20799;-84
2022/10/15 04:31:00;;;;;;;0.30;0.20;;;14.30;99.90;;;;;;5013269;28;20472;-84
2022/10/15 04:33:27;;;;;;;0.30;0.20;;;14.30;99.90;;;;;;5013432;28;20456;-84
2022/10/15 04:36:06;;;;;;;0.30;0.20;;;14.30;99.90;;;;;;5013515;28;20479;-84
2022/10/15 04:38:33;;;;;;;0.40;0.30;;;14.20;99.90;;;;;;5013082;28;20439;-84
2022/10/15 04:41:01;;;;;;;0.30;0.30;;;14.30;99.90;;;;;;5013142;28;20468;-84
2022/10/15 04:43:28;;;;;;;0.30;0.20;;;14.20;99.90;;;;;;5013011;28;20440;-84
2022/10/15 04:45:57;;;;;;;0.30;0.20;;;14.30;99.90;;;;;;5013314;28;20444;-83
2022/10/15 04:48:24;;;;;;;0.30;0.20;;;14.30;99.90;;;;;;5013405;28;20456;-84
2022/10/15 04:50:51;;;;;;;0.30;0.20;;;14.30;99.90;;;;;;5013131;28;20522;-84
2022/10/15 04:53:19;;;;;;;0.30;0.30;;;14.30;99.90;;;;;;5013321;28;20522;-84
2022/10/15 04:55:46;;;;;;;0.30;0.30;;;14.30;99.90;;;;;;5012792;28;20998;-84
2022/10/15 04:58:12;;;;;;;0.30;0.20;;;14.30;99.90;;;;;;5015219;28;20459;-84
2022/10/15 05:00:40;;;;;;;0.40;0.30;;;14.20;99.90;;;;;;5016526;28;20534;-84
2022/10/15 05:03:06;;;;;;;0.30;0.20;;;14.20;99.90;;;;;;5016576;28;20459;-84
2022/10/15 05:05:33;;;;;;;0.30;0.30;;;14.20;99.90;;;;;;5016203;28;20844;-83
2022/10/15 05:08:00;;;;;;;0.30;0.20;;;14.20;99.90;;;;;;5016151;28;20457;-83
2022/10/15 05:10:29;;;;;;;0.60;0.30;;;14.20;99.90;;;;;;5016298;28;20905;-84
2022/10/15 05:12:55;;;;;;;0.30;0.30;;;14.20;99.90;;;;;;5016479;28;20455;-84
2022/10/15 05:15:22;;;;;;;0.30;0.20;;;14.20;99.90;;;;;;5016366;28;20487;-84
2022/10/15 05:17:49;;;;;;;0.30;0.20;;;14.10;99.90;;;;;;5016398;28;20452;-83
2022/10/15 05:20:16;;;;;;;0.40;0.30;;;14.10;99.90;;;;;;5016406;28;20480;-85
2022/10/15 05:22:44;;;;;;;0.30;0.20;;;14.10;99.90;;;;;;5016328;28;20463;-84
2022/10/15 05:25:11;;;;;;;0.30;0.30;;;14.10;99.90;;;;;;5016078;28;20459;-83
2022/10/15 05:27:39;;;;;;;0.30;0.30;;;14.10;99.90;;;;;;5016857;28;20460;-84
2022/10/15 05:30:06;;;;;;;0.30;0.23;;;14.10;99.90;;;;;;5015812;28;20849;-83
2022/10/15 05:32:33;;;;;;;0.30;0.30;;;14.10;99.90;;;;;;5015822;28;20986;-84
2022/10/15 05:35:00;;;;;;;0.40;0.30;;;14.00;99.90;;;;;;5015974;28;20487;-83
2022/10/15 05:37:27;;;;;;;0.30;0.30;;;14.10;99.90;;;;;;5016017;28;20452;-83
2022/10/15 05:39:53;;;;;;;0.30;0.30;;;14.10;99.90;;;;;;5015899;28;20479;-83
2022/10/15 05:42:20;;;;;;;0.40;0.30;;;14.10;99.90;;;;;;5015894;28;20453;-84
2022/10/15 05:44:48;;;;;;;0.30;0.20;;;14.10;99.90;;;;;;5015821;28;20448;-83
2022/10/15 05:47:15;;;;;;;0.30;0.20;;;14.10;99.90;;;;;;5015799;28;20452;-83
2022/10/15 05:49:41;;;;;;;0.30;0.30;;;14.10;99.90;;;;;;5015453;28;20476;-84
2022/10/15 05:52:08;;;;;;;0.37;0.30;;;14.10;99.90;;;;;;5015738;28;20449;-83
2022/10/15 05:54:35;;;;;;;0.50;0.30;;;14.00;99.90;;;;;;5015613;28;20855;-83
2022/10/15 05:57:02;;;;;;;0.30;0.20;;;14.10;99.90;;;;;;5015642;28;20448;-83
2022/10/15 05:59:28;;;;;;;0.30;0.30;;;14.00;99.90;;;;;;5015252;28;20456;-84
2022/10/15 06:01:56;;;;;;;0.30;0.30;;;14.00;99.90;;;;;;5015103;28;20480;-82
2022/10/15 06:04:23;;;;;;;0.40;0.30;;;14.00;99.90;;;;;;5015630;28;20452;-83
2022/10/15 06:06:50;;;;;;;0.30;0.30;;;14.00;99.90;;;;;;5015551;28;20811;-83
2022/10/15 06:09:16;;;;;;;0.30;0.30;;;14.00;99.90;;;;;;5014136;28;20460;-83
2022/10/15 06:11:43;;;;;;;0.30;0.30;;;14.00;99.90;;;;;;5015378;28;20471;-83
2022/10/15 06:14:10;;;;;;;0.30;0.30;;;14.00;99.90;;;;;;5014938;28;20451;-83
2022/10/15 06:16:37;;;;;;;0.30;0.30;;;13.90;99.90;;;;;;5020342;28;20460;-83
2022/10/15 06:19:05;;;;;;;0.30;0.30;;;14.00;99.90;;;;;;5015307;28;20452;-84
2022/10/15 06:21:32;;;;;;;0.30;0.20;;;14.00;99.90;;;;;;5014987;28;20499;-84
2022/10/15 06:23:59;;;;;;;0.30;0.30;;;14.00;99.90;;;;;;5014907;28;20965;-84
2022/10/15 06:26:25;;;;;;;0.30;0.30;;;14.00;99.90;;;;;;5015144;28;20440;-83
2022/10/15 06:28:52;;;;;;;0.30;0.20;;;14.00;99.90;;;;;;5015527;28;20460;-85
2022/10/15 06:31:19;;;;;;;0.30;0.20;;;14.00;99.90;;;;;;5015897;28;20480;-84
2022/10/15 06:33:46;;;;;;;0.40;0.30;;;14.00;99.90;;;;;;5014912;28;20973;-84
2022/10/15 06:36:14;;;;;;;0.30;0.30;;;14.00;99.90;;;;;;5014981;28;20498;-84
2022/10/15 06:38:42;;;;;;;0.50;0.50;;;14.00;99.90;;;;;;5014949;28;20452;-84
2022/10/15 06:41:10;;;;;;;0.30;0.30;;;14.00;99.90;;;;;;5014532;28;20453;-84
2022/10/15 06:43:36;;;;;;;0.40;0.30;;;14.00;99.90;;;;;;5014684;28;20825;-83
2022/10/15 06:46:05;;;;;;;0.40;0.30;;;14.00;99.90;;;;;;5014994;28;20437;-84
2022/10/15 06:48:32;;;;;;;0.30;0.30;;;14.00;99.90;;;;;;5014562;28;20959;-83
2022/10/15 06:50:59;;;;;;;0.60;0.30;;;14.00;99.90;;;;;;5014499;28;20557;-84
2022/10/15 06:53:28;;;;;;;0.40;0.30;;;14.00;99.90;;;;;;5014719;28;20452;-84
2022/10/15 06:55:57;;;;;;;0.30;0.20;;;14.00;99.90;;;;;;5014313;28;20568;-83
2022/10/15 06:58:24;;;;;;;0.53;0.30;;;14.10;99.90;;;;;;5014683;28;20502;-83
2022/10/15 07:00:51;;;;;;;0.30;0.30;;;14.10;99.90;;;;;;5014239;28;20492;-83
2022/10/15 07:03:18;;;;;;;0.30;0.30;;;14.20;99.90;;;;;;5014470;28;20460;-84
2022/10/15 07:05:45;;;;;;;0.40;0.30;;;14.20;99.90;;;;;;5014526;28;20437;-83
2022/10/15 07:08:11;;;;;;;0.30;0.30;;;14.20;99.90;;;;;;5014411;28;20460;-83
2022/10/15 07:10:39;;;;;;;0.30;0.30;;;14.30;99.90;;;;;;5014313;28;20473;-83
2022/10/15 07:13:06;;;;;;;0.40;0.30;;;14.30;99.90;;;;;;5014319;28;20447;-82
2022/10/15 07:15:33;;;;;;;0.30;0.30;;;14.30;99.90;;;;;;5014171;28;20484;-83
2022/10/15 07:18:01;;;;;;;0.30;0.30;;;14.40;99.90;;;;;;5014025;28;20844;-83
2022/10/15 07:20:28;;;;;;;0.30;0.20;;;14.40;99.90;;;;;;5013831;28;20819;-83
2022/10/15 07:22:57;;;;;;;0.30;0.30;;;14.40;99.90;;;;;;5014078;28;20978;-83
2022/10/15 07:25:24;;;;;;;0.40;0.30;;;14.40;99.90;;;;;;5014063;28;20515;-83
2022/10/15 07:27:54;;;;;;;0.30;0.30;;;14.40;99.90;;;;;;5014046;28;20452;-83
2022/10/15 07:30:21;;;;;;;0.30;0.27;;;14.40;99.90;;;;;;5014720;28;20478;-83
2022/10/15 07:32:48;;;;;;;0.30;0.30;;;14.40;99.90;;;;;;5013952;28;20456;-84
2022/10/15 07:35:15;;;;;;;0.30;0.30;;;14.40;99.90;;;;;;5013875;28;20484;-84
2022/10/15 07:37:41;;;;;;;0.30;0.27;;;14.40;99.90;;;;;;5014006;28;20448;-85
2022/10/15 07:40:09;;;;;;;0.40;0.40;;;14.50;99.90;;;;;;5013728;28;20987;-84
2022/10/15 07:42:36;;;;;;;0.30;0.30;;;14.50;99.90;;;;;;5013785;28;20963;-84
2022/10/15 07:45:05;;;;;;;0.30;0.30;;;14.50;99.90;;;;;;5013936;28;20449;-84
2022/10/15 07:47:31;;;;;;;0.40;0.30;;;14.60;99.90;;;;;;5013854;28;20475;-85
2022/10/15 07:49:58;;;;;;;0.30;0.20;;;14.60;99.90;;;;;;5013838;28;20472;-84
2022/10/15 07:52:25;;;;;;;0.30;0.27;;;14.70;99.90;;;;;;5013594;28;20436;-85
2022/10/15 07:54:52;;;;;;;0.30;0.30;;;14.70;99.90;;;;;;5013432;28;20448;-84
2022/10/15 07:57:19;;;;;;;0.30;0.30;;;14.70;99.90;;;;;;5013514;28;20428;-84
2022/10/15 07:59:46;;;;;;;0.40;0.30;;;14.80;99.90;;;;;;5013748;28;20486;-85
2022/10/15 08:02:16;;;;;;;0.30;0.20;;;14.70;99.90;;;;;;5013194;28;20491;-84
2022/10/15 08:04:43;;;;;;;0.30;0.30;;;14.80;99.90;;;;;;5013626;28;20428;-84
2022/10/15 08:07:10;;;;;;;0.30;0.20;;;14.80;99.90;;;;;;5013280;28;20441;-84
2022/10/15 08:09:37;;;;;;;0.30;0.30;;;14.90;99.90;;;;;;5013484;28;20472;-84
2022/10/15 08:12:05;;;;;;;0.30;0.20;;;14.90;99.90;;;;;;5013558;28;20510;-85
2022/10/15 08:14:32;;;;;;;0.30;0.30;;;15.00;99.90;;;;;;5013496;28;20460;-83
2022/10/15 08:16:59;;;;;;;0.40;0.30;;;14.90;99.90;;;;;;5013402;28;20496;-84
2022/10/15 08:19:27;;;;;;;0.30;0.20;;;14.90;99.90;;;;;;5013161;28;20440;-84
2022/10/15 08:21:54;;;;;;;0.40;0.30;;;14.90;99.90;;;;;;5013102;28;20962;-84
2022/10/15 08:24:20;;;;;;;0.30;0.30;;;14.80;99.90;;;;;;5013312;28;20455;-84
2022/10/15 08:26:48;;;;;;;0.30;0.30;;;15.00;99.90;;;;;;5013054;28;21042;-84
2022/10/15 08:29:14;;;;;;;0.30;0.23;;;15.00;99.90;;;;;;5013000;28;21017;-84
2022/10/15 08:31:42;;;;;;;0.30;0.20;;;15.10;99.90;;;;;;5013316;28;20440;-83
2022/10/15 08:34:08;;;;;;;0.37;0.30;;;15.10;99.90;;;;;;5016629;28;20448;-84
2022/10/15 08:36:37;;;;;;;0.30;0.30;;;15.20;99.90;;;;;;5017113;28;20472;-84
2022/10/15 08:39:06;;;;;;;0.30;0.30;;;15.30;99.90;;;;;;5016761;28;20459;-84
2022/10/15 08:41:37;;;;;;;0.30;0.30;;;15.30;99.90;;;;;;5016970;28;20467;-84
2022/10/15 08:44:05;;;;;;;0.30;0.30;;;15.40;99.90;;;;;;5017211;28;20507;-84
2022/10/15 08:46:36;;;;;;;0.40;0.30;;;15.50;99.90;;;;;;5016989;28;20877;-84
2022/10/15 08:49:04;;;;;;;0.30;0.30;;;15.60;99.90;;;;;;5016997;28;20447;-84
2022/10/15 08:51:40;;;;;;;0.30;0.20;;;15.60;99.90;;;;;;5016603;28;20460;-84
2022/10/15 08:54:09;;;;;;;0.30;0.30;;;15.60;99.90;;;;;;5016105;28;20440;-84
2022/10/15 08:56:39;;;;;;;0.30;0.20;;;15.70;99.90;;;;;;5016479;28;20480;-83
2022/10/15 08:59:17;;;;;;;0.30;0.30;;;15.70;99.90;;;;;;5016646;28;20488;-83
2022/10/15 09:01:50;;;;;;;0.30;0.30;;;15.60;99.90;;;;;;5015606;28;21028;-82
2022/10/15 09:04:24;;;;;;;4.03;0.70;;;15.60;99.90;;;;;;5017181;28;20421;-87
2022/10/15 09:06:58;;;;;;;0.30;0.30;;;15.50;99.90;;;;;;5016800;28;20420;-86
2022/10/15 09:09:30;;;;;;;0.30;0.30;;;15.50;99.90;;;;;;5017425;28;20919;-87
2022/10/15 09:12:04;;;;;;;0.40;0.30;;;15.50;99.90;;;;;;5016906;28;20409;-87
2022/10/15 09:14:35;;;;;;;0.30;0.20;;;15.40;99.90;;;;;;5017070;28;20444;-87
2022/10/15 09:17:07;;;;;;;0.30;0.30;;;15.40;99.90;;;;;;5016529;28;20468;-87
2022/10/15 09:19:36;;;;;;;0.30;0.20;;;15.50;99.90;;;;;;5016797;28;20849;-86
2022/10/15 09:22:05;;;;;;;0.30;0.30;;;15.60;99.90;;;;;;5016898;28;20444;-86
2022/10/15 09:24:33;;;;;;;0.30;0.23;;;15.60;99.90;;;;;;5016337;28;20501;-86
2022/10/15 09:27:07;;;;;;;0.30;0.30;;;15.70;99.90;;;;;;5023257;28;20875;-86
2022/10/15 09:29:41;;;;;;;0.30;0.20;;;15.80;99.90;;;;;;5024159;28;20476;-86
2022/10/15 09:32:17;;;;;;;3.30;0.30;;;15.90;99.90;;;;;;5018401;28;20533;-86
2022/10/15 09:34:51;;;;;;;0.30;0.20;;;16.10;99.90;;;;;;5015718;28;20825;-86
2022/10/15 09:37:25;;;;;;;0.30;0.30;;;16.50;99.90;;;;;;5016047;28;20472;-86
2022/10/15 09:40:15;;;;;;;0.40;0.30;;;17.00;99.90;;;;;;5017933;28;20472;-87
2022/10/15 09:42:43;;;;;;;1.70;0.50;;;17.30;99.90;;;;;;5016229;28;20409;-87
2022/10/15 09:45:13;;;;;;;0.30;0.30;;;17.50;99.90;;;;;;5015959;28;20455;-87
2022/10/15 09:47:42;;;;;;;0.30;0.30;;;17.50;99.90;;;;;;5015881;28;20954;-86
2022/10/15 09:50:11;;;;;;;0.40;0.30;;;17.40;99.90;;;;;;5015791;28;20833;-86
2022/10/15 09:53:05;;;;;;;0.30;0.30;;;17.20;99.90;;;;;;5016424;28;20471;-87
2022/10/15 09:55:38;;;;;;;0.40;0.30;;;17.10;99.90;;;;;;5013102;28;20559;-86
2022/10/15 09:58:12;;;;;;;0.30;0.30;;;17.20;99.90;;;;;;5016062;28;20433;-87
2022/10/15 10:01:01;;;;;;;0.50;0.30;;;17.20;99.90;;;;;;5016271;28;20516;-87
2022/10/15 10:03:29;;;;;;;0.30;0.30;;;17.40;99.90;;;;;;5012561;28;20448;-87
2022/10/15 10:06:03;;;;;;;0.60;0.30;;;17.80;99.90;;;;;;5015566;28;20444;-87
2022/10/15 10:08:37;;;;;;;0.30;0.20;;;17.90;99.90;;;;;;5015446;28;20937;-87
2022/10/15 10:11:07;;;;;;;0.30;0.30;;;17.70;99.90;;;;;;5015474;28;20460;-87
2022/10/15 10:13:39;;;;;;;0.67;0.30;;;17.40;99.90;;;;;;5015717;28;20456;-86
2022/10/15 10:16:08;;;;;;;0.70;0.40;;;17.20;99.90;;;;;;5015551;28;20472;-86
2022/10/15 10:18:37;;;;;;;0.40;0.30;;;16.70;99.90;;;;;;5010466;28;20456;-86
2022/10/15 10:21:06;;;;;;;0.47;0.30;;;16.60;99.90;;;;;;5015291;28;20985;-86
2022/10/15 10:23:36;;;;;;;0.30;0.30;;;16.40;99.90;;;;;;5015523;28;20444;-86
2022/10/15 10:26:04;;;;;;;0.40;0.40;;;16.50;99.90;;;;;;5015302;28;20448;-85
2022/10/15 10:28:34;;;;;;;0.40;0.30;;;16.50;99.90;;;;;;5014779;28;20467;-86
2022/10/15 10:31:08;;;;;;;0.40;0.30;;;16.70;99.90;;;;;;5015126;28;20500;-86
2022/10/15 10:33:37;;;;;;;1.10;0.50;;;17.30;99.90;;;;;;5016054;28;20437;-86
2022/10/15 10:36:06;;;;;;;3.17;0.30;;;17.50;99.90;;;;;;5015204;28;20488;-86
2022/10/15 10:38:36;;;;;;;0.30;0.30;;;17.50;99.90;;;;;;5014749;28;20966;-86
2022/10/15 10:41:06;;;;;;;0.40;0.30;;;17.60;99.90;;;;;;5015236;28;20508;-86
2022/10/15 10:43:35;;;;;;;0.40;0.40;;;17.90;99.90;;;;;;5014962;28;20526;-86
2022/10/15 10:46:04;;;;;;;0.40;0.37;;;18.10;99.90;;;;;;5014881;28;20455;-86
2022/10/15 10:48:39;;;;;;;0.40;0.30;;;18.20;99.90;;;;;;5014865;28;20453;-85
2022/10/15 10:51:10;;;;;;;0.40;0.30;;;17.90;99.90;;;;;;5014498;28;20846;-85
2022/10/15 10:53:50;;;;;;;0.30;0.30;;;17.80;99.90;;;;;;5015254;28;20440;-80
2022/10/15 10:56:21;;;;;;;0.40;0.30;;;17.40;99.90;;;;;;5013506;28;20858;-85
2022/10/15 10:58:52;;;;;;;0.93;0.40;;;17.30;99.90;;;;;;5014504;28;20885;-84
2022/10/15 11:01:19;;;;;;;0.30;0.30;;;17.20;99.90;;;;;;5014147;28;20605;-84
2022/10/15 11:03:47;;;;;;;0.30;0.30;;;17.20;99.90;;;;;;5014129;28;20947;-84
2022/10/15 11:06:41;;;;;;;0.37;0.30;;;17.20;99.90;;;;;;5014141;28;20450;-84
2022/10/15 11:09:26;;;;;;;0.30;0.30;;;17.30;99.90;;;;;;5014408;28;20413;-84
2022/10/15 11:12:07;;;;;;;5.50;0.33;;;17.50;99.90;;;;;;5014284;28;20440;-84
2022/10/15 11:14:45;;;;;;;1.43;0.40;;;17.70;99.90;;;;;;5014953;28;20448;-83
2022/10/15 11:17:20;;;;;;;0.60;0.30;;;17.80;99.90;;;;;;5013882;28;20468;-83
2022/10/15 11:19:54;;;;;;;0.43;0.30;;;17.90;99.90;;;;;;5014213;28;20483;-84
2022/10/15 11:22:38;;;;;;;0.40;0.30;;;17.90;99.90;;;;;;5014173;28;20874;-85
2022/10/15 11:25:14;;;;;;;0.40;0.30;;;17.80;99.90;;;;;;5014114;28;20440;-85
2022/10/15 11:27:56;;;;;;;0.40;0.30;;;17.80;99.90;;;;;;5014457;28;20451;-84
2022/10/15 11:30:35;;;;;;;0.40;0.40;;;17.90;99.90;;;;;;5014087;28;20468;-85
2022/10/15 11:33:13;;;;;;;0.40;0.30;;;18.00;99.90;;;;;;5014422;28;20892;-86
2022/10/15 11:35:47;;;;;;;0.33;0.30;;;17.80;99.90;;;;;;5014157;28;20440;-86
2022/10/15 11:38:23;;;;;;;0.40;0.30;;;17.80;99.90;;;;;;5014243;28;20417;-87
2022/10/15 11:41:07;;;;;;;2.63;0.40;;;17.80;99.90;;;;;;5014054;28;20522;-86
2022/10/15 11:43:47;;;;;;;0.40;0.30;;;17.80;99.90;;;;;;5014781;28;20429;-89
2022/10/15 11:46:19;;;;;;;0.30;0.30;;;17.80;99.90;;;;;;5015590;28;20409;-88
2022/10/15 11:48:58;;;;;;;0.40;0.30;;;17.80;99.90;;;;;;5014816;28;20797;-88
2022/10/15 11:51:34;;;;;;;0.30;0.30;;;17.90;99.90;;;;;;5020554;28;20483;-88
2022/10/15 11:54:15;;;;;;;0.40;0.40;;;17.90;99.90;;;;;;5024378;28;20436;-88
2022/10/15 11:56:46;;;;;;;0.40;0.30;;;17.90;99.90;;;;;;5018897;28;20475;-89
2022/10/15 11:59:32;;;;;;;0.40;0.30;;;18.00;99.90;;;;;;5014814;28;20924;-90
2022/10/15 12:02:04;;;;;;;0.40;0.30;;;18.10;99.90;;;;;;5014479;28;20484;-89
2022/10/15 12:04:38;;;;;;;0.30;0.30;;;18.20;99.90;;;;;;5014762;28;20424;-89
2022/10/15 12:07:07;;;;;;;3.13;0.27;;;18.20;99.90;;;;;;5017445;28;20429;-92
2022/10/15 12:09:37;;;;;;;0.30;0.30;;;18.10;99.90;;;;;;5019439;28;20475;-92
2022/10/15 12:12:09;;;;;;;0.40;0.40;;;18.10;99.90;;;;;;5019921;28;20456;-89
2022/10/15 12:14:41;;;;;;;0.40;0.30;;;18.10;99.90;;;;;;5019171;28;20436;-91
2022/10/15 12:17:16;;;;;;;0.60;0.40;;;18.10;99.90;;;;;;5019458;28;20472;-90
2022/10/15 12:19:48;;;;;;;0.30;0.30;;;17.90;99.90;;;;;;5019119;28;20472;-88
2022/10/15 12:22:33;;;;;;;0.40;0.30;;;17.70;99.90;;;;;;5017275;28;20448;-87
2022/10/15 12:25:00;;;;;;;0.30;0.30;;;17.40;99.90;;;;;;5017318;28;20452;-84
2022/10/15 12:27:34;;;;;;;0.30;0.30;;;17.00;99.90;;;;;;5017110;28;20903;-81
2022/10/15 12:30:22;;;;;;;0.40;0.30;;;16.80;99.90;;;;;;5016795;28;20503;-83
2022/10/15 12:32:50;;;;;;;0.40;0.30;;;16.70;99.90;;;;;;5017392;28;20436;-86
2022/10/15 12:35:34;;;;;;;0.30;0.30;;;16.50;99.90;;;;;;5017337;28;20455;-86
2022/10/15 12:38:21;;;;;;;0.40;0.40;;;16.40;99.90;;;;;;5017241;28;20467;-86
2022/10/15 12:40:57;;;;;;;0.40;0.30;;;16.40;99.90;;;;;;5016914;28;20479;-87
2022/10/15 12:43:25;;;;;;;0.30;0.30;;;16.40;99.90;;;;;;5017142;28;20432;-87
2022/10/15 12:45:54;;;;;;;1.07;0.30;;;16.30;99.90;;;;;;5016800;28;20970;-86
2022/10/15 12:48:40;;;;;;;2.97;0.40;;;16.20;99.90;;;;;;5016986;28;20450;-86
2022/10/15 12:51:38;;;;;;;0.40;0.30;;;16.10;99.90;;;;;;5016659;28;20991;-85
2022/10/15 12:54:33;;;;;;;0.50;0.50;;;16.00;99.90;;;;;;5016962;28;20436;-85
2022/10/15 12:57:00;;;;;;;0.47;0.30;;;16.10;99.90;;;;;;5016906;28;20468;-85
2022/10/15 12:59:56;;;;;;;0.30;0.30;;;16.20;99.90;;;;;;5016855;28;20804;-86
2022/10/15 13:02:36;;;;;;;0.40;0.30;;;16.30;99.90;;;;;;5019187;28;20483;-85
2022/10/15 13:05:04;;;;;;;0.30;0.30;;;16.50;99.90;;;;;;5016817;28;20443;-85